createdAt,value
2022-09-15T00:01:11.699Z,100.00
2022-09-15T00:03:48.390Z,100.00
2022-09-15T00:06:16.146Z,100.00
2022-09-15T00:08:44.594Z,100.00
2022-09-15T00:11:15.829Z,100.00
2022-09-15T00:13:44.018Z,100.00
2022-09-15T00:16:15.254Z,100.00
2022-09-15T00:18:44.379Z,100.00
2022-09-15T00:21:17.838Z,100.00
2022-09-15T00:23:46.330Z,100.00
2022-09-15T00:26:15.974Z,100.00
2022-09-15T00:28:44.516Z,100.00
2022-09-15T00:31:18.553Z,100.00
2022-09-15T00:33:52.724Z,100.00
2022-09-15T00:36:20.726Z,100.00
2022-09-15T00:38:48.573Z,100.00
2022-09-15T00:41:21.639Z,100.00
2022-09-15T00:43:58.374Z,100.00
2022-09-15T00:46:41.885Z,100.00
2022-09-15T00:49:13.719Z,100.00
2022-09-15T00:52:03.263Z,100.00
2022-09-15T00:54:36.657Z,100.00
2022-09-15T00:57:05.294Z,100.00
2022-09-15T00:59:40.713Z,100.00
2022-09-15T01:02:22.146Z,100.00
2022-09-15T01:04:56.018Z,100.00
2022-09-15T01:07:32.741Z,100.00
2022-09-15T01:10:05.874Z,100.00
2022-09-15T01:12:33.460Z,100.00
2022-09-15T01:15:02.046Z,100.00
2022-09-15T01:18:04.077Z,100.00
2022-09-15T01:21:08.772Z,100.00
2022-09-15T01:24:14.321Z,100.00
2022-09-15T01:26:46.799Z,100.00
2022-09-15T01:29:39.338Z,100.00
2022-09-15T01:32:34.619Z,100.00
2022-09-15T01:35:22.514Z,100.00
2022-09-15T01:37:56.048Z,100.00
2022-09-15T01:40:25.222Z,100.00
2022-09-15T01:42:56.094Z,100.00
2022-09-15T01:45:30.414Z,100.00
2022-09-15T01:47:59.170Z,100.00
2022-09-15T01:50:31.719Z,100.00
2022-09-15T01:53:01.949Z,100.00
2022-09-15T01:55:49.400Z,100.00
2022-09-15T01:58:17.012Z,100.00
2022-09-15T02:00:50.195Z,100.00
2022-09-15T02:03:22.818Z,100.00
2022-09-15T02:06:03.055Z,100.00
2022-09-15T02:08:36.822Z,100.00
2022-09-15T02:11:18.063Z,100.00
2022-09-15T02:14:00.252Z,100.00
2022-09-15T02:16:32.527Z,100.00
2022-09-15T02:19:11.711Z,100.00
2022-09-15T02:21:55.073Z,100.00
2022-09-15T02:24:32.741Z,100.00
2022-09-15T02:27:01.318Z,100.00
2022-09-15T02:29:30.578Z,100.00
2022-09-15T02:32:02.662Z,100.00
2022-09-15T02:34:36.560Z,100.00
2022-09-15T02:37:05.078Z,100.00
2022-09-15T02:39:36.231Z,100.00
2022-09-15T02:42:04.259Z,100.00
2022-09-15T02:44:32.258Z,100.00
2022-09-15T02:47:00.729Z,100.00
2022-09-15T02:49:28.543Z,100.00
2022-09-15T02:51:55.889Z,100.00
2022-09-15T02:54:23.208Z,100.00
2022-09-15T02:56:50.891Z,100.00
2022-09-15T02:59:18.154Z,100.00
2022-09-15T03:01:45.557Z,100.00
2022-09-15T03:04:13.233Z,100.00
2022-09-15T03:06:40.558Z,100.00
2022-09-15T03:09:08.473Z,100.00
2022-09-15T03:11:37.098Z,100.00
2022-09-15T03:14:06.118Z,100.00
2022-09-15T03:16:35.103Z,100.00
2022-09-15T03:19:03.463Z,100.00
2022-09-15T03:21:31.407Z,100.00
2022-09-15T03:23:59.270Z,100.00
2022-09-15T03:26:26.931Z,100.00
2022-09-15T03:28:54.322Z,100.00
2022-09-15T03:31:21.654Z,100.00
2022-09-15T03:33:49.804Z,100.00
2022-09-15T03:36:17.334Z,100.00
2022-09-15T03:38:44.762Z,100.00
2022-09-15T03:41:13.102Z,100.00
2022-09-15T03:43:41.613Z,100.00
2022-09-15T03:46:11.769Z,100.00
2022-09-15T03:48:40.665Z,100.00
2022-09-15T03:51:08.979Z,100.00
2022-09-15T03:53:39.152Z,100.00
2022-09-15T03:56:13.857Z,100.00
2022-09-15T03:58:41.264Z,100.00
2022-09-15T04:01:09.432Z,100.00
2022-09-15T04:03:42.730Z,100.00
2022-09-15T04:06:13.351Z,100.00
2022-09-15T04:08:40.788Z,100.00
2022-09-15T04:11:09.731Z,100.00
2022-09-15T04:13:39.200Z,100.00
2022-09-15T04:16:09.444Z,100.00
2022-09-15T04:18:37.352Z,100.00
2022-09-15T04:21:11.712Z,100.00
2022-09-15T04:23:40.693Z,100.00
2022-09-15T04:26:31.617Z,100.00
2022-09-15T04:29:03.935Z,100.00
2022-09-15T04:31:33.655Z,100.00
2022-09-15T04:34:01.504Z,100.00
2022-09-15T04:36:29.990Z,100.00
2022-09-15T04:38:58.464Z,100.00
2022-09-15T04:41:26.533Z,100.00
2022-09-15T04:43:54.372Z,100.00
2022-09-15T04:46:22.490Z,100.00
2022-09-15T04:48:49.932Z,100.00
2022-09-15T04:51:20.482Z,100.00
2022-09-15T04:53:48.507Z,100.00
2022-09-15T04:56:18.082Z,100.00
2022-09-15T04:58:47.603Z,100.00
2022-09-15T05:01:21.392Z,100.00
2022-09-15T05:03:50.020Z,100.00
2022-09-15T05:06:21.565Z,100.00
2022-09-15T05:08:50.577Z,100.00
2022-09-15T05:11:18.478Z,100.00
2022-09-15T05:13:46.820Z,100.00
2022-09-15T05:16:17.570Z,100.00
2022-09-15T05:18:46.589Z,100.00
2022-09-15T05:21:17.011Z,100.00
2022-09-15T05:23:44.705Z,100.00
2022-09-15T05:26:14.164Z,100.00
2022-09-15T05:28:42.431Z,100.00
2022-09-15T05:31:11.828Z,100.00
2022-09-15T05:33:39.822Z,100.00
2022-09-15T05:36:07.635Z,100.00
2022-09-15T05:38:35.266Z,100.00
2022-09-15T05:41:13.798Z,100.00
2022-09-15T05:43:41.475Z,100.00
2022-09-15T05:46:10.455Z,100.00
2022-09-15T05:48:38.003Z,100.00
2022-09-15T05:51:06.013Z,100.00
2022-09-15T05:53:35.101Z,100.00
2022-09-15T05:56:13.943Z,100.00
2022-09-15T05:58:43.460Z,100.00
2022-09-15T06:01:25.725Z,100.00
2022-09-15T06:03:54.795Z,100.00
2022-09-15T06:06:23.297Z,100.00
2022-09-15T06:08:58.010Z,100.00
2022-09-15T06:11:29.306Z,100.00
2022-09-15T06:14:03.388Z,100.00
2022-09-15T06:16:34.032Z,100.00
2022-09-15T06:19:02.610Z,100.00
2022-09-15T06:21:31.487Z,100.00
2022-09-15T06:24:01.848Z,100.00
2022-09-15T06:26:30.078Z,100.00
2022-09-15T06:29:02.770Z,100.00
2022-09-15T06:31:33.035Z,100.00
2022-09-15T06:34:10.226Z,100.00
2022-09-15T06:36:39.229Z,100.00
2022-09-15T06:39:06.925Z,100.00
2022-09-15T06:41:58.359Z,100.00
2022-09-15T06:44:23.403Z,100.00
2022-09-15T06:46:50.962Z,100.00
2022-09-15T06:49:19.255Z,100.00
2022-09-15T06:51:46.875Z,100.00
2022-09-15T06:54:16.228Z,100.00
2022-09-15T06:56:45.097Z,100.00
2022-09-15T06:59:13.908Z,100.00
2022-09-15T07:01:54.561Z,100.00
2022-09-15T07:04:23.003Z,100.00
2022-09-15T07:06:53.164Z,100.00
2022-09-15T07:09:20.709Z,100.00
2022-09-15T07:11:48.336Z,100.00
2022-09-15T07:14:15.681Z,100.00
2022-09-15T07:16:43.185Z,100.00
2022-09-15T07:19:11.037Z,100.00
2022-09-15T07:21:38.393Z,100.00
2022-09-15T07:24:07.614Z,100.00
2022-09-15T07:26:35.500Z,100.00
2022-09-15T07:29:06.903Z,100.00
2022-09-15T07:31:37.102Z,100.00
2022-09-15T07:34:05.691Z,100.00
2022-09-15T07:36:33.299Z,100.00
2022-09-15T07:39:00.871Z,100.00
2022-09-15T07:41:30.007Z,100.00
2022-09-15T07:43:59.870Z,100.00
2022-09-15T07:46:31.314Z,100.00
2022-09-15T07:48:59.173Z,98.13
2022-09-15T07:51:27.024Z,97.02
2022-09-15T07:53:54.972Z,99.61
2022-09-15T07:56:23.983Z,100.00
2022-09-15T07:58:51.439Z,98.51
2022-09-15T08:01:19.978Z,97.54
2022-09-15T08:03:49.840Z,92.08
2022-09-15T08:06:20.107Z,90.05
2022-09-15T08:08:47.569Z,88.36
2022-09-15T08:11:19.439Z,86.31
2022-09-15T08:13:52.567Z,87.57
2022-09-15T08:16:23.155Z,88.05
2022-09-15T08:18:52.917Z,82.74
2022-09-15T08:21:21.324Z,82.88
2022-09-15T08:23:58.551Z,85.03
2022-09-15T08:26:27.588Z,82.57
2022-09-15T08:28:55.002Z,83.78
2022-09-15T08:31:24.259Z,80.67
2022-09-15T08:33:54.343Z,80.99
2022-09-15T08:36:22.206Z,78.59
2022-09-15T08:38:49.675Z,77.86
2022-09-15T08:41:24.403Z,77.85
2022-09-15T08:43:56.636Z,78.05
2022-09-15T08:46:28.598Z,78.22
2022-09-15T08:49:04.293Z,80.23
2022-09-15T08:51:43.833Z,77.53
2022-09-15T08:54:22.011Z,76.56
2022-09-15T08:56:49.879Z,75.85
2022-09-15T08:59:18.755Z,77.54
2022-09-15T09:01:52.546Z,72.50
2022-09-15T09:04:32.254Z,74.89
2022-09-15T09:07:14.898Z,71.34
2022-09-15T09:09:50.148Z,72.82
2022-09-15T09:12:54.708Z,74.72
2022-09-15T09:15:34.557Z,76.59
2022-09-15T09:18:20.611Z,76.65
2022-09-15T09:20:55.823Z,75.81
2022-09-15T09:23:26.801Z,73.61
2022-09-15T09:25:56.439Z,73.62
2022-09-15T09:28:40.106Z,73.01
2022-09-15T09:31:08.408Z,74.95
2022-09-15T09:33:47.791Z,74.11
2022-09-15T09:36:15.794Z,78.99
2022-09-15T09:38:45.012Z,71.49
2022-09-15T09:41:18.020Z,72.95
2022-09-15T09:43:47.671Z,71.63
2022-09-15T09:46:20.282Z,72.87
2022-09-15T09:49:12.923Z,74.86
2022-09-15T09:51:50.789Z,78.38
2022-09-15T09:54:20.740Z,76.87
2022-09-15T09:56:53.301Z,76.21
2022-09-15T09:59:35.210Z,76.04
2022-09-15T10:02:11.581Z,79.49
2022-09-15T10:04:44.252Z,79.44
2022-09-15T10:07:12.315Z,81.51
2022-09-15T10:09:41.070Z,78.65
2022-09-15T10:12:19.360Z,78.50
2022-09-15T10:14:52.638Z,80.02
2022-09-15T10:17:22.963Z,80.06
2022-09-15T10:19:54.639Z,82.40
2022-09-15T10:22:23.951Z,81.19
2022-09-15T10:24:51.778Z,79.68
2022-09-15T10:27:34.153Z,78.97
2022-09-15T10:30:21.135Z,80.75
2022-09-15T10:32:48.749Z,79.72
2022-09-15T10:35:18.919Z,81.82
2022-09-15T10:38:20.260Z,80.54
2022-09-15T10:41:09.724Z,80.09
2022-09-15T10:43:37.165Z,81.72
2022-09-15T10:46:29.168Z,81.00
2022-09-15T10:49:18.502Z,80.18
2022-09-15T10:52:11.383Z,81.06
2022-09-15T10:55:22.013Z,79.55
2022-09-15T10:58:29.581Z,75.39
2022-09-15T11:01:15.629Z,77.43
2022-09-15T11:03:52.026Z,79.70
2022-09-15T11:06:26.000Z,79.80
2022-09-15T11:09:09.005Z,78.20
2022-09-15T11:12:03.038Z,79.80
2022-09-15T11:14:39.826Z,76.95
2022-09-15T11:17:44.898Z,75.97
2022-09-15T11:20:40.297Z,80.44
2022-09-15T11:23:13.889Z,78.43
2022-09-15T11:25:44.840Z,79.15
2022-09-15T11:28:23.102Z,78.61
2022-09-15T11:31:00.870Z,78.33
2022-09-15T11:33:46.997Z,79.10
2022-09-15T11:36:21.003Z,79.47
2022-09-15T11:38:59.815Z,76.69
2022-09-15T11:41:41.977Z,79.31
2022-09-15T11:44:16.759Z,76.03
2022-09-15T11:47:14.973Z,77.67
2022-09-15T11:49:49.261Z,76.93
2022-09-15T11:52:41.517Z,77.44
2022-09-15T11:55:39.497Z,77.31
2022-09-15T11:58:32.454Z,80.22
2022-09-15T12:01:04.071Z,77.20
2022-09-15T12:03:38.011Z,78.48
2022-09-15T12:06:14.876Z,78.29
2022-09-15T12:08:44.489Z,78.46
2022-09-15T12:11:17.780Z,77.00
2022-09-15T12:13:45.899Z,79.27
2022-09-15T12:16:14.308Z,80.92
2022-09-15T12:18:52.560Z,82.20
2022-09-15T12:21:38.949Z,83.33
2022-09-15T12:24:34.080Z,84.56
2022-09-15T12:27:02.491Z,86.03
2022-09-15T12:29:41.213Z,83.26
2022-09-15T12:32:33.393Z,82.73
2022-09-15T12:35:19.665Z,82.54
2022-09-15T12:37:49.300Z,83.55
2022-09-15T12:40:39.750Z,83.21
2022-09-15T12:43:13.601Z,84.45
2022-09-15T12:45:43.039Z,81.34
2022-09-15T12:48:27.463Z,82.34
2022-09-15T12:51:00.300Z,84.17
2022-09-15T12:56:08.323Z,84.98
2022-09-15T12:58:40.711Z,86.39
2022-09-15T13:01:26.755Z,85.63
2022-09-15T13:04:00.760Z,86.94
2022-09-15T13:06:35.359Z,87.38
2022-09-15T13:09:05.888Z,87.77
2022-09-15T13:11:53.792Z,87.07
2022-09-15T13:14:33.934Z,86.21
2022-09-15T13:17:07.666Z,84.12
2022-09-15T13:19:46.121Z,86.08
2022-09-15T13:22:35.020Z,86.09
2022-09-15T13:25:11.389Z,86.16
2022-09-15T13:27:51.966Z,85.27
2022-09-15T13:30:25.467Z,84.80
2022-09-15T13:33:15.876Z,85.36
2022-09-15T13:35:52.620Z,86.38
2022-09-15T13:38:36.180Z,88.01
2022-09-15T13:41:27.561Z,87.79
2022-09-15T13:44:21.250Z,86.87
2022-09-15T13:47:15.537Z,89.93
2022-09-15T13:50:20.639Z,90.35
2022-09-15T13:53:25.790Z,90.93
2022-09-15T13:55:57.156Z,89.89
2022-09-15T14:01:14.476Z,87.48
2022-09-15T14:03:42.306Z,86.16
2022-09-15T14:06:16.258Z,86.85
2022-09-15T14:08:46.270Z,84.92
2022-09-15T14:11:15.371Z,85.85
2022-09-15T14:13:47.898Z,85.67
2022-09-15T14:16:26.530Z,86.08
2022-09-15T14:18:56.060Z,86.53
2022-09-15T14:21:30.543Z,86.21
2022-09-15T14:24:04.609Z,87.07
2022-09-15T14:26:34.682Z,87.38
2022-09-15T14:29:04.892Z,87.70
2022-09-15T14:31:33.625Z,84.01
2022-09-15T14:34:05.903Z,84.21
2022-09-15T14:36:34.762Z,82.41
2022-09-15T14:39:21.994Z,84.03
2022-09-15T14:41:50.833Z,85.73
2022-09-15T14:47:19.442Z,87.47
2022-09-15T14:49:47.238Z,88.03
2022-09-15T14:52:25.091Z,87.98
2022-09-15T14:54:56.768Z,88.29
2022-09-15T14:57:30.186Z,88.71
2022-09-15T15:00:07.172Z,88.21
2022-09-15T15:02:57.131Z,90.49
2022-09-15T15:05:28.674Z,88.78
2022-09-15T15:07:57.116Z,87.53
2022-09-15T15:10:27.996Z,88.84
2022-09-15T15:13:02.357Z,87.07
2022-09-15T15:15:31.750Z,85.91
2022-09-15T15:17:59.675Z,86.81
2022-09-15T15:20:30.496Z,87.39
2022-09-15T15:23:11.653Z,87.77
2022-09-15T15:25:39.608Z,88.56
2022-09-15T15:28:07.704Z,89.60
2022-09-15T15:30:43.227Z,90.34
2022-09-15T15:33:29.732Z,90.38
2022-09-15T15:36:15.574Z,92.37
2022-09-15T15:38:48.064Z,92.36
2022-09-15T15:41:27.030Z,91.52
2022-09-15T15:44:07.831Z,93.14
2022-09-15T15:46:54.964Z,92.36
2022-09-15T15:49:27.585Z,93.32
2022-09-15T15:51:55.603Z,92.46
2022-09-15T15:54:23.795Z,93.41
2022-09-15T15:56:52.219Z,93.67
2022-09-15T15:59:20.331Z,93.00
2022-09-15T16:01:51.876Z,94.08
2022-09-15T16:04:19.725Z,95.17
2022-09-15T16:06:47.966Z,94.74
2022-09-15T16:09:17.169Z,95.88
2022-09-15T16:11:47.943Z,95.49
2022-09-15T16:14:15.670Z,96.02
2022-09-15T16:16:43.140Z,96.26
2022-09-15T16:19:11.538Z,96.20
2022-09-15T16:21:42.692Z,96.00
2022-09-15T16:24:14.166Z,96.05
2022-09-15T16:26:42.883Z,98.11
2022-09-15T16:29:11.384Z,99.00
2022-09-15T16:31:39.281Z,98.88
2022-09-15T16:34:09.232Z,99.15
2022-09-15T16:36:36.869Z,98.75
2022-09-15T16:39:04.388Z,98.71
2022-09-15T16:41:38.968Z,99.47
2022-09-15T16:44:16.963Z,99.40
2022-09-15T16:46:44.644Z,100.00
2022-09-15T16:49:12.044Z,100.00
2022-09-15T16:51:39.376Z,100.00
2022-09-15T16:54:15.559Z,100.00
2022-09-15T16:56:43.465Z,100.00
2022-09-15T16:59:11.421Z,100.00
2022-09-15T17:01:39.239Z,100.00
2022-09-15T17:04:13.229Z,100.00
2022-09-15T17:06:40.837Z,100.00
2022-09-15T17:09:08.187Z,100.00
2022-09-15T17:11:35.728Z,100.00
2022-09-15T17:14:03.449Z,100.00
2022-09-15T17:16:30.881Z,100.00
2022-09-15T17:18:58.329Z,100.00
2022-09-15T17:21:26.244Z,100.00
2022-09-15T17:23:53.755Z,100.00
2022-09-15T17:26:24.678Z,100.00
2022-09-15T17:28:55.639Z,100.00
2022-09-15T17:31:25.148Z,100.00
2022-09-15T17:33:53.312Z,100.00
2022-09-15T17:36:21.616Z,100.00
2022-09-15T17:38:49.258Z,100.00
2022-09-15T17:41:21.675Z,100.00
2022-09-15T17:43:52.259Z,100.00
2022-09-15T17:46:19.763Z,100.00
2022-09-15T17:48:47.117Z,100.00
2022-09-15T17:51:17.449Z,100.00
2022-09-15T17:53:47.101Z,100.00
2022-09-15T17:56:14.574Z,100.00
2022-09-15T17:58:43.388Z,100.00
2022-09-15T18:01:14.703Z,100.00
2022-09-15T18:03:44.273Z,100.00
2022-09-15T18:06:12.319Z,100.00
2022-09-15T18:08:40.938Z,100.00
2022-09-15T18:11:08.971Z,100.00
2022-09-15T18:13:37.487Z,100.00
2022-09-15T18:16:07.843Z,100.00
2022-09-15T18:18:35.658Z,100.00
2022-09-15T18:21:07.987Z,100.00
2022-09-15T18:23:37.607Z,100.00
2022-09-15T18:26:05.875Z,100.00
2022-09-15T18:28:33.382Z,100.00
2022-09-15T18:31:00.988Z,100.00
2022-09-15T18:33:29.380Z,100.00
2022-09-15T18:35:59.067Z,100.00
2022-09-15T18:38:27.107Z,100.00
2022-09-15T18:40:56.541Z,100.00
2022-09-15T18:43:26.808Z,100.00
2022-09-15T18:46:01.361Z,100.00
2022-09-15T18:48:32.262Z,100.00
2022-09-15T18:50:59.889Z,100.00
2022-09-15T18:53:27.798Z,100.00
2022-09-15T18:55:55.576Z,100.00
2022-09-15T18:58:23.855Z,100.00
2022-09-15T19:00:52.204Z,100.00
2022-09-15T19:03:19.881Z,100.00
2022-09-15T19:05:47.204Z,100.00
2022-09-15T19:08:15.320Z,100.00
2022-09-15T19:10:44.389Z,100.00
2022-09-15T19:13:14.334Z,100.00
2022-09-15T19:15:44.215Z,100.00
2022-09-15T19:18:12.046Z,100.00
2022-09-15T19:20:40.439Z,100.00
2022-09-15T19:23:09.217Z,100.00
2022-09-15T19:25:37.817Z,100.00
2022-09-15T19:28:05.349Z,100.00
2022-09-15T19:30:33.045Z,100.00
2022-09-15T19:33:02.701Z,100.00
2022-09-15T19:35:30.278Z,100.00
2022-09-15T19:37:57.767Z,100.00
2022-09-15T19:40:25.673Z,100.00
2022-09-15T19:42:53.180Z,100.00
2022-09-15T19:45:20.627Z,100.00
2022-09-15T19:47:48.680Z,100.00
2022-09-15T19:50:16.256Z,100.00
2022-09-15T19:52:44.457Z,100.00
2022-09-15T19:55:13.266Z,100.00
2022-09-15T19:57:42.190Z,100.00
2022-09-15T20:00:11.972Z,100.00
2022-09-15T20:02:40.470Z,100.00
2022-09-15T20:07:54.233Z,100.00
2022-09-15T20:10:21.806Z,100.00
2022-09-15T20:12:49.427Z,100.00
2022-09-15T20:15:17.243Z,100.00
2022-09-15T20:17:44.640Z,100.00
2022-09-15T20:20:12.277Z,100.00
2022-09-15T20:22:40.124Z,100.00
2022-09-15T20:25:07.676Z,100.00
2022-09-15T20:27:35.172Z,100.00
2022-09-15T20:30:03.014Z,100.00
2022-09-15T20:32:33.332Z,100.00
2022-09-15T20:35:01.343Z,100.00
2022-09-15T20:37:29.082Z,100.00
2022-09-15T20:39:57.548Z,100.00
2022-09-15T20:42:25.003Z,100.00
2022-09-15T20:44:52.922Z,100.00
2022-09-15T20:47:20.270Z,100.00
2022-09-15T20:49:47.740Z,100.00
2022-09-15T20:52:16.243Z,100.00
2022-09-15T20:54:44.324Z,100.00
2022-09-15T20:57:12.137Z,100.00
2022-09-15T20:59:40.281Z,100.00
2022-09-15T21:02:07.844Z,100.00
2022-09-15T21:04:35.520Z,100.00
2022-09-15T21:07:03.527Z,100.00
2022-09-15T21:09:30.885Z,100.00
2022-09-15T21:11:58.505Z,100.00
2022-09-15T21:14:26.348Z,100.00
2022-09-15T21:16:54.067Z,100.00
2022-09-15T21:19:21.583Z,100.00
2022-09-15T21:21:49.816Z,100.00
2022-09-15T21:24:17.325Z,100.00
2022-09-15T21:27:03.579Z,100.00
2022-09-15T21:29:31.714Z,100.00
2022-09-15T21:31:59.211Z,100.00
2022-09-15T21:34:27.277Z,100.00
2022-09-15T21:36:55.493Z,100.00
2022-09-15T21:39:23.817Z,100.00
2022-09-15T21:41:51.307Z,100.00
2022-09-15T21:44:19.498Z,100.00
2022-09-15T21:46:48.209Z,100.00
2022-09-15T21:49:18.266Z,100.00
2022-09-15T21:51:45.856Z,100.00
2022-09-15T21:54:14.152Z,100.00
2022-09-15T21:56:41.967Z,100.00
2022-09-15T21:59:11.028Z,100.00
2022-09-15T22:01:39.897Z,100.00
2022-09-15T22:04:09.002Z,100.00
2022-09-15T22:06:40.659Z,100.00
2022-09-15T22:09:10.647Z,100.00
2022-09-15T22:11:38.560Z,100.00
2022-09-15T22:14:09.812Z,100.00
2022-09-15T22:16:38.936Z,100.00
2022-09-15T22:19:08.258Z,100.00
2022-09-15T22:21:37.259Z,100.00
2022-09-15T22:24:07.183Z,100.00
2022-09-15T22:26:37.827Z,100.00
2022-09-15T22:29:06.138Z,100.00
2022-09-15T22:31:34.126Z,100.00
2022-09-15T22:34:02.040Z,100.00
2022-09-15T22:36:31.373Z,100.00
2022-09-15T22:39:05.055Z,100.00
2022-09-15T22:41:37.161Z,100.00
2022-09-15T22:44:05.917Z,100.00
2022-09-15T22:46:34.102Z,100.00
2022-09-15T22:49:01.998Z,100.00
2022-09-15T22:51:29.969Z,100.00
2022-09-15T22:53:57.861Z,100.00
2022-09-15T22:56:26.622Z,100.00
2022-09-15T22:58:55.849Z,100.00
2022-09-15T23:01:28.629Z,100.00
2022-09-15T23:03:58.565Z,100.00
2022-09-15T23:06:28.850Z,100.00
2022-09-15T23:08:59.944Z,100.00
2022-09-15T23:11:28.807Z,100.00
2022-09-15T23:13:56.631Z,100.00
2022-09-15T23:16:25.079Z,100.00
2022-09-15T23:18:54.370Z,100.00
2022-09-15T23:21:22.223Z,100.00
2022-09-15T23:23:50.133Z,100.00
2022-09-15T23:26:20.282Z,100.00
2022-09-15T23:28:49.324Z,100.00
2022-09-15T23:31:17.332Z,100.00
2022-09-15T23:33:45.653Z,100.00
2022-09-15T23:36:15.502Z,100.00
2022-09-15T23:38:44.556Z,100.00
2022-09-15T23:41:13.559Z,100.00
2022-09-15T23:43:41.284Z,100.00
2022-09-15T23:46:09.236Z,100.00
2022-09-15T23:48:37.335Z,100.00
2022-09-15T23:51:05.650Z,100.00
2022-09-15T23:53:33.214Z,100.00
2022-09-15T23:56:01.103Z,100.00
2022-09-15T23:58:28.549Z,100.00
